sensor_id;sensor_type;location;lat;lon;timestamp;P1;durP1;ratioP1;P2;durP2;ratioP2
13795;SDS011;40911;51.552;9.874;2023-04-25T00:02:14;8.52;;;4.70;;
13795;SDS011;40911;51.552;9.874;2023-04-25T00:04:36;7.50;;;5.15;;
13795;SDS011;40911;51.552;9.874;2023-04-25T00:09:21;9.52;;;5.03;;
13795;SDS011;40911;51.552;9.874;2023-04-25T00:11:44;9.93;;;5.22;;
13795;SDS011;40911;51.552;9.874;2023-04-25T00:14:06;10.77;;;4.97;;
13795;SDS011;40911;51.552;9.874;2023-04-25T00:16:27;12.68;;;4.97;;
13795;SDS011;40911;51.552;9.874;2023-04-25T00:18:50;13.95;;;4.93;;
13795;SDS011;40911;51.552;9.874;2023-04-25T00:21:13;9.98;;;5.28;;
13795;SDS011;40911;51.552;9.874;2023-04-25T00:23:37;9.98;;;4.97;;
13795;SDS011;40911;51.552;9.874;2023-04-25T00:25:59;17.17;;;6.00;;
13795;SDS011;40911;51.552;9.874;2023-04-25T00:28:22;9.65;;;5.78;;
13795;SDS011;40911;51.552;9.874;2023-04-25T00:30:44;10.02;;;5.68;;
13795;SDS011;40911;51.552;9.874;2023-04-25T00:33:05;10.38;;;5.50;;
13795;SDS011;40911;51.552;9.874;2023-04-25T00:37:48;11.90;;;5.85;;
13795;SDS011;40911;51.552;9.874;2023-04-25T00:40:10;12.38;;;6.35;;
13795;SDS011;40911;51.552;9.874;2023-04-25T00:44:55;10.27;;;6.05;;
13795;SDS011;40911;51.552;9.874;2023-04-25T00:47:17;13.00;;;6.38;;
13795;SDS011;40911;51.552;9.874;2023-04-25T00:52:00;11.48;;;6.80;;
13795;SDS011;40911;51.552;9.874;2023-04-25T00:54:21;11.82;;;7.03;;
13795;SDS011;40911;51.552;9.874;2023-04-25T00:56:44;16.85;;;7.40;;
13795;SDS011;40911;51.552;9.874;2023-04-25T00:59:06;16.58;;;7.88;;
13795;SDS011;40911;51.552;9.874;2023-04-25T01:01:29;14.82;;;7.20;;
13795;SDS011;40911;51.552;9.874;2023-04-25T01:03:51;15.85;;;7.50;;
13795;SDS011;40911;51.552;9.874;2023-04-25T01:06:14;16.90;;;8.00;;
13795;SDS011;40911;51.552;9.874;2023-04-25T01:13:20;15.35;;;7.68;;
13795;SDS011;40911;51.552;9.874;2023-04-25T01:18:05;12.20;;;8.13;;
13795;SDS011;40911;51.552;9.874;2023-04-25T01:20:27;14.90;;;7.82;;
13795;SDS011;40911;51.552;9.874;2023-04-25T01:22:51;15.15;;;8.27;;
13795;SDS011;40911;51.552;9.874;2023-04-25T01:25:13;15.07;;;8.57;;
13795;SDS011;40911;51.552;9.874;2023-04-25T01:27:35;15.13;;;9.10;;
13795;SDS011;40911;51.552;9.874;2023-04-25T01:29:57;13.80;;;8.10;;
13795;SDS011;40911;51.552;9.874;2023-04-25T01:32:19;19.02;;;9.20;;
13795;SDS011;40911;51.552;9.874;2023-04-25T01:34:42;14.63;;;8.65;;
13795;SDS011;40911;51.552;9.874;2023-04-25T01:37:03;13.70;;;8.60;;
13795;SDS011;40911;51.552;9.874;2023-04-25T01:39:26;16.10;;;8.63;;
13795;SDS011;40911;51.552;9.874;2023-04-25T01:41:48;16.83;;;7.85;;
13795;SDS011;40911;51.552;9.874;2023-04-25T01:44:10;18.88;;;8.10;;
13795;SDS011;40911;51.552;9.874;2023-04-25T01:46:32;17.35;;;8.15;;
13795;SDS011;40911;51.552;9.874;2023-04-25T01:48:54;16.30;;;8.43;;
13795;SDS011;40911;51.552;9.874;2023-04-25T01:51:16;16.10;;;8.43;;
13795;SDS011;40911;51.552;9.874;2023-04-25T01:56:00;13.63;;;7.72;;
13795;SDS011;40911;51.552;9.874;2023-04-25T01:58:22;16.23;;;8.27;;
13795;SDS011;40911;51.552;9.874;2023-04-25T02:00:44;18.85;;;8.20;;
13795;SDS011;40911;51.552;9.874;2023-04-25T02:03:05;12.63;;;8.50;;
13795;SDS011;40911;51.552;9.874;2023-04-25T02:05:27;15.00;;;8.38;;
13795;SDS011;40911;51.552;9.874;2023-04-25T02:07:49;15.45;;;8.48;;
13795;SDS011;40911;51.552;9.874;2023-04-25T02:10:10;15.65;;;8.50;;
13795;SDS011;40911;51.552;9.874;2023-04-25T02:12:33;18.30;;;9.48;;
13795;SDS011;40911;51.552;9.874;2023-04-25T02:14:56;13.48;;;8.45;;
13795;SDS011;40911;51.552;9.874;2023-04-25T02:17:18;17.70;;;9.10;;
13795;SDS011;40911;51.552;9.874;2023-04-25T02:19:41;14.60;;;8.40;;
13795;SDS011;40911;51.552;9.874;2023-04-25T02:22:03;19.52;;;8.90;;
13795;SDS011;40911;51.552;9.874;2023-04-25T02:24:24;16.98;;;8.70;;
13795;SDS011;40911;51.552;9.874;2023-04-25T02:26:47;18.35;;;9.07;;
13795;SDS011;40911;51.552;9.874;2023-04-25T02:31:32;13.77;;;8.88;;
13795;SDS011;40911;51.552;9.874;2023-04-25T02:33:53;16.27;;;9.48;;
13795;SDS011;40911;51.552;9.874;2023-04-25T02:36:15;16.55;;;8.02;;
13795;SDS011;40911;51.552;9.874;2023-04-25T02:38:37;17.80;;;9.45;;
13795;SDS011;40911;51.552;9.874;2023-04-25T02:40:59;19.30;;;8.93;;
13795;SDS011;40911;51.552;9.874;2023-04-25T02:43:20;19.92;;;9.10;;
13795;SDS011;40911;51.552;9.874;2023-04-25T02:45:43;16.33;;;8.85;;
13795;SDS011;40911;51.552;9.874;2023-04-25T02:48:05;18.55;;;8.93;;
13795;SDS011;40911;51.552;9.874;2023-04-25T02:50:27;16.98;;;9.55;;
13795;SDS011;40911;51.552;9.874;2023-04-25T02:55:11;14.48;;;8.30;;
13795;SDS011;40911;51.552;9.874;2023-04-25T02:57:33;13.68;;;8.20;;
13795;SDS011;40911;51.552;9.874;2023-04-25T02:59:55;14.82;;;8.00;;
13795;SDS011;40911;51.552;9.874;2023-04-25T03:02:18;15.68;;;8.15;;
13795;SDS011;40911;51.552;9.874;2023-04-25T03:04:39;16.70;;;8.43;;
13795;SDS011;40911;51.552;9.874;2023-04-25T03:09:22;14.32;;;7.35;;
13795;SDS011;40911;51.552;9.874;2023-04-25T03:11:44;19.17;;;8.10;;
13795;SDS011;40911;51.552;9.874;2023-04-25T03:14:06;15.02;;;7.57;;
13795;SDS011;40911;51.552;9.874;2023-04-25T03:18:52;16.10;;;7.97;;
13795;SDS011;40911;51.552;9.874;2023-04-25T03:21:13;19.95;;;8.25;;
13795;SDS011;40911;51.552;9.874;2023-04-25T03:23:35;14.95;;;8.57;;
13795;SDS011;40911;51.552;9.874;2023-04-25T03:25:57;17.00;;;8.13;;
13795;SDS011;40911;51.552;9.874;2023-04-25T03:28:19;14.48;;;7.70;;
13795;SDS011;40911;51.552;9.874;2023-04-25T03:30:40;16.27;;;8.32;;
13795;SDS011;40911;51.552;9.874;2023-04-25T03:33:02;13.68;;;7.72;;
13795;SDS011;40911;51.552;9.874;2023-04-25T03:35:25;17.58;;;8.25;;
13795;SDS011;40911;51.552;9.874;2023-04-25T03:37:46;15.98;;;7.90;;
13795;SDS011;40911;51.552;9.874;2023-04-25T03:40:08;18.27;;;8.00;;
13795;SDS011;40911;51.552;9.874;2023-04-25T03:42:30;14.52;;;7.80;;
13795;SDS011;40911;51.552;9.874;2023-04-25T03:44:52;11.60;;;7.75;;
13795;SDS011;40911;51.552;9.874;2023-04-25T03:47:13;13.60;;;7.63;;
13795;SDS011;40911;51.552;9.874;2023-04-25T03:49:35;17.13;;;7.63;;
13795;SDS011;40911;51.552;9.874;2023-04-25T03:51:58;14.32;;;7.82;;
13795;SDS011;40911;51.552;9.874;2023-04-25T03:54:20;14.43;;;7.53;;
13795;SDS011;40911;51.552;9.874;2023-04-25T03:56:41;16.17;;;7.88;;
13795;SDS011;40911;51.552;9.874;2023-04-25T03:59:03;14.68;;;7.88;;
13795;SDS011;40911;51.552;9.874;2023-04-25T04:01:25;12.63;;;7.78;;
13795;SDS011;40911;51.552;9.874;2023-04-25T04:03:46;16.60;;;7.40;;
13795;SDS011;40911;51.552;9.874;2023-04-25T04:06:08;12.85;;;8.15;;
13795;SDS011;40911;51.552;9.874;2023-04-25T04:08:32;17.83;;;8.13;;
13795;SDS011;40911;51.552;9.874;2023-04-25T04:10:53;16.20;;;8.30;;
13795;SDS011;40911;51.552;9.874;2023-04-25T04:13:15;17.13;;;8.75;;
13795;SDS011;40911;51.552;9.874;2023-04-25T04:15:36;16.10;;;8.70;;
13795;SDS011;40911;51.552;9.874;2023-04-25T04:17:58;15.68;;;8.90;;
13795;SDS011;40911;51.552;9.874;2023-04-25T04:20:22;14.23;;;8.32;;
13795;SDS011;40911;51.552;9.874;2023-04-25T04:22:44;16.15;;;9.00;;
13795;SDS011;40911;51.552;9.874;2023-04-25T04:25:07;15.18;;;9.75;;
13795;SDS011;40911;51.552;9.874;2023-04-25T04:27:31;16.67;;;9.75;;
13795;SDS011;40911;51.552;9.874;2023-04-25T04:29:54;13.10;;;8.57;;
13795;SDS011;40911;51.552;9.874;2023-04-25T04:34:37;14.85;;;10.00;;
13795;SDS011;40911;51.552;9.874;2023-04-25T04:39:20;14.52;;;9.65;;
13795;SDS011;40911;51.552;9.874;2023-04-25T04:41:43;17.83;;;9.50;;
13795;SDS011;40911;51.552;9.874;2023-04-25T04:44:05;13.07;;;8.32;;
13795;SDS011;40911;51.552;9.874;2023-04-25T04:46:28;14.30;;;9.45;;
13795;SDS011;40911;51.552;9.874;2023-04-25T04:48:51;15.52;;;9.32;;
13795;SDS011;40911;51.552;9.874;2023-04-25T04:51:13;12.45;;;8.95;;
13795;SDS011;40911;51.552;9.874;2023-04-25T04:53:35;14.43;;;9.55;;
13795;SDS011;40911;51.552;9.874;2023-04-25T04:55:56;15.93;;;8.68;;
13795;SDS011;40911;51.552;9.874;2023-04-25T04:58:20;15.70;;;9.07;;
13795;SDS011;40911;51.552;9.874;2023-04-25T05:00:42;12.93;;;9.13;;
13795;SDS011;40911;51.552;9.874;2023-04-25T05:03:04;13.95;;;9.13;;
13795;SDS011;40911;51.552;9.874;2023-04-25T05:05:26;13.52;;;8.82;;
13795;SDS011;40911;51.552;9.874;2023-04-25T05:07:48;13.27;;;8.73;;
13795;SDS011;40911;51.552;9.874;2023-04-25T05:10:09;12.20;;;9.02;;
13795;SDS011;40911;51.552;9.874;2023-04-25T05:14:54;15.88;;;9.00;;
13795;SDS011;40911;51.552;9.874;2023-04-25T05:17:16;12.80;;;9.65;;
13795;SDS011;40911;51.552;9.874;2023-04-25T05:19:37;14.45;;;9.30;;
13795;SDS011;40911;51.552;9.874;2023-04-25T05:24:20;17.88;;;9.23;;
13795;SDS011;40911;51.552;9.874;2023-04-25T05:26:42;13.63;;;9.68;;
13795;SDS011;40911;51.552;9.874;2023-04-25T05:29:04;14.82;;;8.82;;
13795;SDS011;40911;51.552;9.874;2023-04-25T05:31:27;12.93;;;9.15;;
13795;SDS011;40911;51.552;9.874;2023-04-25T05:33:49;14.15;;;9.77;;
13795;SDS011;40911;51.552;9.874;2023-04-25T05:36:10;14.35;;;10.25;;
13795;SDS011;40911;51.552;9.874;2023-04-25T05:38:32;14.32;;;9.38;;
13795;SDS011;40911;51.552;9.874;2023-04-25T05:40:53;14.68;;;9.15;;
13795;SDS011;40911;51.552;9.874;2023-04-25T05:43:15;15.00;;;8.27;;
13795;SDS011;40911;51.552;9.874;2023-04-25T05:45:37;14.80;;;8.30;;
13795;SDS011;40911;51.552;9.874;2023-04-25T05:48:00;14.57;;;8.20;;
13795;SDS011;40911;51.552;9.874;2023-04-25T05:50:21;16.77;;;8.25;;
13795;SDS011;40911;51.552;9.874;2023-04-25T05:52:43;14.93;;;8.55;;
13795;SDS011;40911;51.552;9.874;2023-04-25T05:55:05;14.30;;;8.45;;
13795;SDS011;40911;51.552;9.874;2023-04-25T05:57:27;11.80;;;8.35;;
13795;SDS011;40911;51.552;9.874;2023-04-25T06:02:10;14.10;;;6.40;;
13795;SDS011;40911;51.552;9.874;2023-04-25T06:04:33;10.25;;;4.97;;
13795;SDS011;40911;51.552;9.874;2023-04-25T06:06:55;15.98;;;6.10;;
13795;SDS011;40911;51.552;9.874;2023-04-25T06:09:16;13.40;;;5.45;;
13795;SDS011;40911;51.552;9.874;2023-04-25T06:11:38;11.65;;;4.97;;
13795;SDS011;40911;51.552;9.874;2023-04-25T06:14:00;15.45;;;5.55;;
13795;SDS011;40911;51.552;9.874;2023-04-25T06:18:44;18.88;;;5.72;;
13795;SDS011;40911;51.552;9.874;2023-04-25T06:21:07;16.70;;;6.03;;
13795;SDS011;40911;51.552;9.874;2023-04-25T06:23:29;13.02;;;4.70;;
13795;SDS011;40911;51.552;9.874;2023-04-25T06:25:51;12.07;;;4.72;;
13795;SDS011;40911;51.552;9.874;2023-04-25T06:28:12;13.45;;;4.75;;
13795;SDS011;40911;51.552;9.874;2023-04-25T06:30:34;11.93;;;5.45;;
13795;SDS011;40911;51.552;9.874;2023-04-25T06:32:55;12.77;;;5.80;;
13795;SDS011;40911;51.552;9.874;2023-04-25T06:35:17;14.88;;;5.45;;
13795;SDS011;40911;51.552;9.874;2023-04-25T06:37:40;11.88;;;5.47;;
13795;SDS011;40911;51.552;9.874;2023-04-25T06:40:02;12.05;;;5.13;;
13795;SDS011;40911;51.552;9.874;2023-04-25T06:42:24;12.52;;;5.47;;
13795;SDS011;40911;51.552;9.874;2023-04-25T06:44:46;10.23;;;4.95;;
13795;SDS011;40911;51.552;9.874;2023-04-25T06:47:07;14.15;;;5.10;;
13795;SDS011;40911;51.552;9.874;2023-04-25T06:49:29;16.38;;;5.20;;
13795;SDS011;40911;51.552;9.874;2023-04-25T06:51:50;13.82;;;5.00;;
13795;SDS011;40911;51.552;9.874;2023-04-25T06:54:13;11.88;;;5.20;;
13795;SDS011;40911;51.552;9.874;2023-04-25T06:56:35;11.73;;;4.63;;
13795;SDS011;40911;51.552;9.874;2023-04-25T06:58:57;17.35;;;5.40;;
13795;SDS011;40911;51.552;9.874;2023-04-25T07:01:20;20.00;;;4.47;;
13795;SDS011;40911;51.552;9.874;2023-04-25T07:03:42;11.90;;;4.55;;
13795;SDS011;40911;51.552;9.874;2023-04-25T07:06:03;11.30;;;4.20;;
13795;SDS011;40911;51.552;9.874;2023-04-25T07:08:25;8.40;;;3.83;;
13795;SDS011;40911;51.552;9.874;2023-04-25T07:10:48;13.38;;;3.90;;
13795;SDS011;40911;51.552;9.874;2023-04-25T07:13:10;10.02;;;3.90;;
13795;SDS011;40911;51.552;9.874;2023-04-25T07:15:31;8.10;;;3.88;;
13795;SDS011;40911;51.552;9.874;2023-04-25T07:20:15;4.93;;;3.30;;
13795;SDS011;40911;51.552;9.874;2023-04-25T07:22:36;8.32;;;3.90;;
13795;SDS011;40911;51.552;9.874;2023-04-25T07:24:58;6.53;;;3.55;;
13795;SDS011;40911;51.552;9.874;2023-04-25T07:27:21;7.07;;;3.53;;
13795;SDS011;40911;51.552;9.874;2023-04-25T07:29:43;8.93;;;3.63;;
13795;SDS011;40911;51.552;9.874;2023-04-25T07:32:05;9.25;;;3.75;;
13795;SDS011;40911;51.552;9.874;2023-04-25T07:34:27;11.30;;;3.67;;
13795;SDS011;40911;51.552;9.874;2023-04-25T07:36:50;12.30;;;3.90;;
13795;SDS011;40911;51.552;9.874;2023-04-25T07:39:11;9.55;;;3.72;;
13795;SDS011;40911;51.552;9.874;2023-04-25T07:41:33;9.40;;;4.07;;
13795;SDS011;40911;51.552;9.874;2023-04-25T07:46:18;10.07;;;4.00;;
13795;SDS011;40911;51.552;9.874;2023-04-25T07:48:39;13.10;;;3.95;;
13795;SDS011;40911;51.552;9.874;2023-04-25T07:51:01;13.40;;;4.22;;
13795;SDS011;40911;51.552;9.874;2023-04-25T07:53:24;11.70;;;4.20;;
13795;SDS011;40911;51.552;9.874;2023-04-25T07:55:46;11.05;;;4.10;;
13795;SDS011;40911;51.552;9.874;2023-04-25T07:58:07;13.55;;;3.90;;
13795;SDS011;40911;51.552;9.874;2023-04-25T08:00:31;14.18;;;4.40;;
13795;SDS011;40911;51.552;9.874;2023-04-25T08:02:52;14.15;;;4.32;;
13795;SDS011;40911;51.552;9.874;2023-04-25T08:05:14;16.13;;;4.68;;
13795;SDS011;40911;51.552;9.874;2023-04-25T08:07:36;16.50;;;4.68;;
13795;SDS011;40911;51.552;9.874;2023-04-25T08:09:57;12.95;;;4.32;;
13795;SDS011;40911;51.552;9.874;2023-04-25T08:12:19;16.55;;;4.30;;
13795;SDS011;40911;51.552;9.874;2023-04-25T08:14:41;14.70;;;3.78;;
13795;SDS011;40911;51.552;9.874;2023-04-25T08:17:04;17.77;;;4.50;;
13795;SDS011;40911;51.552;9.874;2023-04-25T08:19:25;17.67;;;5.05;;
13795;SDS011;40911;51.552;9.874;2023-04-25T08:21:47;15.60;;;4.78;;
13795;SDS011;40911;51.552;9.874;2023-04-25T08:24:08;15.05;;;4.68;;
13795;SDS011;40911;51.552;9.874;2023-04-25T08:26:30;13.32;;;4.25;;
13795;SDS011;40911;51.552;9.874;2023-04-25T08:31:13;21.83;;;4.97;;
13795;SDS011;40911;51.552;9.874;2023-04-25T08:35:58;11.35;;;3.60;;
13795;SDS011;40911;51.552;9.874;2023-04-25T08:40:41;13.45;;;4.88;;
13795;SDS011;40911;51.552;9.874;2023-04-25T08:43:05;14.88;;;4.32;;
13795;SDS011;40911;51.552;9.874;2023-04-25T08:45:31;10.10;;;3.83;;
13795;SDS011;40911;51.552;9.874;2023-04-25T08:47:54;12.52;;;4.32;;
13795;SDS011;40911;51.552;9.874;2023-04-25T08:50:19;9.75;;;4.00;;
13795;SDS011;40911;51.552;9.874;2023-04-25T08:52:43;12.65;;;4.07;;
13795;SDS011;40911;51.552;9.874;2023-04-25T08:55:06;15.40;;;4.70;;
13795;SDS011;40911;51.552;9.874;2023-04-25T08:57:30;14.73;;;4.13;;
13795;SDS011;40911;51.552;9.874;2023-04-25T09:02:14;19.20;;;4.93;;
13795;SDS011;40911;51.552;9.874;2023-04-25T09:04:37;12.63;;;4.28;;
13795;SDS011;40911;51.552;9.874;2023-04-25T09:09:22;9.98;;;4.18;;
13795;SDS011;40911;51.552;9.874;2023-04-25T09:11:44;16.73;;;4.18;;
13795;SDS011;40911;51.552;9.874;2023-04-25T09:14:13;12.57;;;4.47;;
13795;SDS011;40911;51.552;9.874;2023-04-25T09:16:35;10.40;;;3.92;;
13795;SDS011;40911;51.552;9.874;2023-04-25T09:19:21;13.27;;;4.60;;
13795;SDS011;40911;51.552;9.874;2023-04-25T09:21:43;15.38;;;4.60;;
13795;SDS011;40911;51.552;9.874;2023-04-25T09:24:08;10.98;;;4.10;;
13795;SDS011;40911;51.552;9.874;2023-04-25T09:26:29;12.05;;;4.00;;
13795;SDS011;40911;51.552;9.874;2023-04-25T09:28:57;14.13;;;5.30;;
13795;SDS011;40911;51.552;9.874;2023-04-25T09:31:26;9.88;;;3.95;;
13795;SDS011;40911;51.552;9.874;2023-04-25T09:33:48;8.90;;;4.05;;
13795;SDS011;40911;51.552;9.874;2023-04-25T09:36:09;10.77;;;4.30;;
13795;SDS011;40911;51.552;9.874;2023-04-25T09:38:32;8.07;;;3.50;;
13795;SDS011;40911;51.552;9.874;2023-04-25T09:41:02;10.98;;;3.60;;
13795;SDS011;40911;51.552;9.874;2023-04-25T09:43:24;11.70;;;3.90;;
13795;SDS011;40911;51.552;9.874;2023-04-25T09:45:46;8.40;;;3.53;;
13795;SDS011;40911;51.552;9.874;2023-04-25T09:50:30;11.95;;;3.50;;
13795;SDS011;40911;51.552;9.874;2023-04-25T09:53:02;9.85;;;3.38;;
13795;SDS011;40911;51.552;9.874;2023-04-25T09:55:25;10.48;;;3.30;;
13795;SDS011;40911;51.552;9.874;2023-04-25T10:00:14;11.25;;;3.33;;
13795;SDS011;40911;51.552;9.874;2023-04-25T10:02:37;10.40;;;3.50;;
13795;SDS011;40911;51.552;9.874;2023-04-25T10:05:00;11.57;;;3.45;;
13795;SDS011;40911;51.552;9.874;2023-04-25T10:07:29;12.55;;;3.70;;
13795;SDS011;40911;51.552;9.874;2023-04-25T10:09:53;9.85;;;3.33;;
13795;SDS011;40911;51.552;9.874;2023-04-25T10:12:19;8.27;;;3.22;;
13795;SDS011;40911;51.552;9.874;2023-04-25T10:17:04;10.30;;;3.58;;
13795;SDS011;40911;51.552;9.874;2023-04-25T10:19:27;9.05;;;3.00;;
13795;SDS011;40911;51.552;9.874;2023-04-25T10:21:50;9.55;;;3.00;;
13795;SDS011;40911;51.552;9.874;2023-04-25T10:24:13;9.88;;;2.90;;
13795;SDS011;40911;51.552;9.874;2023-04-25T10:26:35;11.52;;;3.00;;
13795;SDS011;40911;51.552;9.874;2023-04-25T10:31:20;6.55;;;3.47;;
13795;SDS011;40911;51.552;9.874;2023-04-25T10:33:42;10.73;;;3.58;;
13795;SDS011;40911;51.552;9.874;2023-04-25T10:36:08;7.95;;;3.35;;
13795;SDS011;40911;51.552;9.874;2023-04-25T10:38:33;8.27;;;3.00;;
13795;SDS011;40911;51.552;9.874;2023-04-25T10:41:02;7.28;;;2.90;;
13795;SDS011;40911;51.552;9.874;2023-04-25T10:43:35;8.07;;;2.95;;
13795;SDS011;40911;51.552;9.874;2023-04-25T10:46:00;8.75;;;3.08;;
13795;SDS011;40911;51.552;9.874;2023-04-25T10:48:26;4.78;;;2.70;;
13795;SDS011;40911;51.552;9.874;2023-04-25T10:50:48;7.50;;;2.80;;
13795;SDS011;40911;51.552;9.874;2023-04-25T10:53:14;11.55;;;3.13;;
13795;SDS011;40911;51.552;9.874;2023-04-25T10:55:48;8.00;;;2.90;;
13795;SDS011;40911;51.552;9.874;2023-04-25T10:58:11;10.57;;;3.00;;
13795;SDS011;40911;51.552;9.874;2023-04-25T11:00:33;6.82;;;2.80;;
13795;SDS011;40911;51.552;9.874;2023-04-25T11:03:00;6.93;;;2.97;;
13795;SDS011;40911;51.552;9.874;2023-04-25T11:05:26;4.80;;;2.50;;
13795;SDS011;40911;51.552;9.874;2023-04-25T11:07:53;8.30;;;2.92;;
13795;SDS011;40911;51.552;9.874;2023-04-25T11:10:17;5.93;;;2.92;;
13795;SDS011;40911;51.552;9.874;2023-04-25T11:12:39;3.40;;;2.40;;
13795;SDS011;40911;51.552;9.874;2023-04-25T11:15:02;6.07;;;2.80;;
13795;SDS011;40911;51.552;9.874;2023-04-25T11:17:26;4.90;;;2.85;;
13795;SDS011;40911;51.552;9.874;2023-04-25T11:19:47;6.55;;;2.75;;
13795;SDS011;40911;51.552;9.874;2023-04-25T11:22:11;7.25;;;3.10;;
13795;SDS011;40911;51.552;9.874;2023-04-25T11:24:33;6.55;;;2.85;;
13795;SDS011;40911;51.552;9.874;2023-04-25T11:26:56;13.73;;;3.30;;
13795;SDS011;40911;51.552;9.874;2023-04-25T11:29:21;3.13;;;2.60;;
13795;SDS011;40911;51.552;9.874;2023-04-25T11:31:43;7.80;;;2.90;;
13795;SDS011;40911;51.552;9.874;2023-04-25T11:34:05;6.70;;;3.00;;
13795;SDS011;40911;51.552;9.874;2023-04-25T11:36:27;6.07;;;2.92;;
13795;SDS011;40911;51.552;9.874;2023-04-25T11:38:52;6.82;;;2.80;;
13795;SDS011;40911;51.552;9.874;2023-04-25T11:41:14;6.63;;;2.90;;
13795;SDS011;40911;51.552;9.874;2023-04-25T11:45:58;4.45;;;2.88;;
13795;SDS011;40911;51.552;9.874;2023-04-25T11:48:19;5.38;;;2.70;;
13795;SDS011;40911;51.552;9.874;2023-04-25T11:50:41;4.53;;;2.90;;
13795;SDS011;40911;51.552;9.874;2023-04-25T11:53:03;5.55;;;3.10;;
13795;SDS011;40911;51.552;9.874;2023-04-25T11:55:26;8.27;;;3.22;;
13795;SDS011;40911;51.552;9.874;2023-04-25T11:57:51;4.65;;;2.90;;
13795;SDS011;40911;51.552;9.874;2023-04-25T12:02:36;9.70;;;3.20;;
13795;SDS011;40911;51.552;9.874;2023-04-25T12:04:58;6.05;;;3.10;;
13795;SDS011;40911;51.552;9.874;2023-04-25T12:07:20;4.28;;;2.90;;
13795;SDS011;40911;51.552;9.874;2023-04-25T12:09:42;3.97;;;2.75;;
13795;SDS011;40911;51.552;9.874;2023-04-25T12:12:06;6.85;;;2.60;;
13795;SDS011;40911;51.552;9.874;2023-04-25T12:14:32;2.75;;;2.47;;
13795;SDS011;40911;51.552;9.874;2023-04-25T12:16:55;6.00;;;2.85;;
13795;SDS011;40911;51.552;9.874;2023-04-25T12:19:19;6.70;;;2.60;;
13795;SDS011;40911;51.552;9.874;2023-04-25T12:21:41;10.70;;;2.63;;
13795;SDS011;40911;51.552;9.874;2023-04-25T12:24:10;4.38;;;2.80;;
13795;SDS011;40911;51.552;9.874;2023-04-25T12:26:45;8.23;;;3.03;;
13795;SDS011;40911;51.552;9.874;2023-04-25T12:29:16;6.50;;;2.80;;
13795;SDS011;40911;51.552;9.874;2023-04-25T12:31:38;5.80;;;2.90;;
13795;SDS011;40911;51.552;9.874;2023-04-25T12:33:59;6.85;;;2.75;;
13795;SDS011;40911;51.552;9.874;2023-04-25T12:36:22;6.38;;;3.10;;
13795;SDS011;40911;51.552;9.874;2023-04-25T12:38:44;4.68;;;2.67;;
13795;SDS011;40911;51.552;9.874;2023-04-25T12:41:06;7.90;;;2.92;;
13795;SDS011;40911;51.552;9.874;2023-04-25T12:43:28;6.90;;;2.88;;
13795;SDS011;40911;51.552;9.874;2023-04-25T12:45:51;6.10;;;2.85;;
13795;SDS011;40911;51.552;9.874;2023-04-25T12:48:14;8.13;;;2.75;;
13795;SDS011;40911;51.552;9.874;2023-04-25T12:50:36;5.18;;;3.00;;
13795;SDS011;40911;51.552;9.874;2023-04-25T12:52:57;6.20;;;3.50;;
13795;SDS011;40911;51.552;9.874;2023-04-25T12:55:19;9.48;;;2.88;;
13795;SDS011;40911;51.552;9.874;2023-04-25T12:57:40;5.45;;;2.95;;
13795;SDS011;40911;51.552;9.874;2023-04-25T13:00:02;6.22;;;2.67;;
13795;SDS011;40911;51.552;9.874;2023-04-25T13:02:29;4.60;;;2.58;;
13795;SDS011;40911;51.552;9.874;2023-04-25T13:04:50;5.15;;;2.63;;
13795;SDS011;40911;51.552;9.874;2023-04-25T13:07:12;5.28;;;2.80;;
13795;SDS011;40911;51.552;9.874;2023-04-25T13:09:34;4.82;;;2.60;;
13795;SDS011;40911;51.552;9.874;2023-04-25T13:11:55;6.45;;;2.47;;
13795;SDS011;40911;51.552;9.874;2023-04-25T13:14:17;4.18;;;2.35;;
13795;SDS011;40911;51.552;9.874;2023-04-25T13:16:39;4.40;;;2.20;;
13795;SDS011;40911;51.552;9.874;2023-04-25T13:21:24;6.28;;;2.55;;
13795;SDS011;40911;51.552;9.874;2023-04-25T13:23:45;9.35;;;2.63;;
13795;SDS011;40911;51.552;9.874;2023-04-25T13:26:07;3.28;;;2.15;;
13795;SDS011;40911;51.552;9.874;2023-04-25T13:28:29;4.78;;;2.20;;
13795;SDS011;40911;51.552;9.874;2023-04-25T13:33:12;5.82;;;2.42;;
13795;SDS011;40911;51.552;9.874;2023-04-25T13:35:35;5.20;;;2.10;;
13795;SDS011;40911;51.552;9.874;2023-04-25T13:37:58;5.57;;;2.42;;
13795;SDS011;40911;51.552;9.874;2023-04-25T13:40:20;3.97;;;2.30;;
13795;SDS011;40911;51.552;9.874;2023-04-25T13:42:42;2.92;;;2.00;;
13795;SDS011;40911;51.552;9.874;2023-04-25T13:45:05;4.97;;;2.25;;
13795;SDS011;40911;51.552;9.874;2023-04-25T13:47:28;7.10;;;2.25;;
13795;SDS011;40911;51.552;9.874;2023-04-25T13:49:50;4.75;;;2.25;;
13795;SDS011;40911;51.552;9.874;2023-04-25T13:52:13;5.15;;;2.35;;
13795;SDS011;40911;51.552;9.874;2023-04-25T13:54:35;6.90;;;2.60;;
13795;SDS011;40911;51.552;9.874;2023-04-25T13:56:56;3.28;;;2.00;;
13795;SDS011;40911;51.552;9.874;2023-04-25T13:59:19;4.88;;;2.50;;
13795;SDS011;40911;51.552;9.874;2023-04-25T14:01:40;4.60;;;2.30;;
13795;SDS011;40911;51.552;9.874;2023-04-25T14:06:24;3.15;;;2.33;;
13795;SDS011;40911;51.552;9.874;2023-04-25T14:08:48;5.30;;;2.45;;
13795;SDS011;40911;51.552;9.874;2023-04-25T14:11:10;5.90;;;2.40;;
13795;SDS011;40911;51.552;9.874;2023-04-25T14:13:32;4.40;;;2.28;;
13795;SDS011;40911;51.552;9.874;2023-04-25T14:18:15;5.70;;;2.20;;
13795;SDS011;40911;51.552;9.874;2023-04-25T14:20:38;5.43;;;2.38;;
13795;SDS011;40911;51.552;9.874;2023-04-25T14:22:59;4.65;;;2.28;;
13795;SDS011;40911;51.552;9.874;2023-04-25T14:25:22;3.47;;;2.10;;
13795;SDS011;40911;51.552;9.874;2023-04-25T14:27:44;3.55;;;2.30;;
13795;SDS011;40911;51.552;9.874;2023-04-25T14:30:09;5.43;;;2.40;;
13795;SDS011;40911;51.552;9.874;2023-04-25T14:32:32;5.05;;;2.15;;
13795;SDS011;40911;51.552;9.874;2023-04-25T14:34:53;6.93;;;2.63;;
13795;SDS011;40911;51.552;9.874;2023-04-25T14:37:15;2.08;;;1.98;;
13795;SDS011;40911;51.552;9.874;2023-04-25T14:39:37;2.85;;;2.13;;
13795;SDS011;40911;51.552;9.874;2023-04-25T14:42:00;6.65;;;2.30;;
13795;SDS011;40911;51.552;9.874;2023-04-25T14:44:21;5.18;;;2.15;;
13795;SDS011;40911;51.552;9.874;2023-04-25T14:46:43;3.88;;;2.50;;
13795;SDS011;40911;51.552;9.874;2023-04-25T14:49:05;5.53;;;2.28;;
13795;SDS011;40911;51.552;9.874;2023-04-25T14:51:27;2.78;;;1.98;;
13795;SDS011;40911;51.552;9.874;2023-04-25T14:56:10;4.57;;;2.78;;
13795;SDS011;40911;51.552;9.874;2023-04-25T15:00:55;5.95;;;2.50;;
13795;SDS011;40911;51.552;9.874;2023-04-25T15:03:17;3.60;;;2.30;;
13795;SDS011;40911;51.552;9.874;2023-04-25T15:05:38;3.00;;;2.30;;
13795;SDS011;40911;51.552;9.874;2023-04-25T15:08:01;5.00;;;2.05;;
13795;SDS011;40911;51.552;9.874;2023-04-25T15:10:23;2.45;;;2.20;;
13795;SDS011;40911;51.552;9.874;2023-04-25T15:12:44;4.35;;;2.30;;
13795;SDS011;40911;51.552;9.874;2023-04-25T15:15:09;3.70;;;2.40;;
13795;SDS011;40911;51.552;9.874;2023-04-25T15:17:31;4.32;;;2.65;;
13795;SDS011;40911;51.552;9.874;2023-04-25T15:19:53;4.10;;;2.20;;
13795;SDS011;40911;51.552;9.874;2023-04-25T15:22:15;5.53;;;2.05;;
13795;SDS011;40911;51.552;9.874;2023-04-25T15:24:37;5.60;;;2.15;;
13795;SDS011;40911;51.552;9.874;2023-04-25T15:29:20;4.25;;;2.25;;
13795;SDS011;40911;51.552;9.874;2023-04-25T15:31:43;3.58;;;2.05;;
13795;SDS011;40911;51.552;9.874;2023-04-25T15:34:05;3.80;;;2.10;;
13795;SDS011;40911;51.552;9.874;2023-04-25T15:36:26;3.92;;;1.98;;
13795;SDS011;40911;51.552;9.874;2023-04-25T15:38:48;5.38;;;2.10;;
13795;SDS011;40911;51.552;9.874;2023-04-25T15:41:11;4.90;;;2.30;;
13795;SDS011;40911;51.552;9.874;2023-04-25T15:43:33;3.28;;;2.25;;